createdAt,value
2019-02-10T11:50:35.543Z,971.50
2019-02-10T11:51:46.495Z,971.55
2019-02-10T12:53:59.594Z,969.96
2019-02-10T12:55:10.703Z,970.01
2019-02-10T12:56:21.783Z,970.04
2019-02-10T12:57:32.879Z,969.98
2019-02-10T12:58:44.008Z,969.88
2019-02-10T12:59:55.086Z,969.90
2019-02-10T13:01:06.182Z,969.88
2019-02-10T13:02:17.253Z,969.94
2019-02-10T13:03:28.332Z,969.91
2019-02-10T13:04:39.401Z,969.95
2019-02-10T13:05:51.494Z,969.89
2019-02-10T13:07:03.609Z,969.90
2019-02-10T13:08:15.233Z,969.76
2019-02-10T13:09:26.217Z,969.85
2019-02-10T13:10:37.482Z,969.86
2019-02-10T13:11:48.513Z,969.81
2019-02-10T13:12:59.573Z,969.74
2019-02-10T13:14:10.636Z,969.80
2019-02-10T13:15:21.704Z,969.78
2019-02-10T13:16:32.761Z,969.83
2019-02-10T13:17:43.842Z,969.82
2019-02-10T13:18:54.912Z,969.85
2019-02-10T13:20:05.975Z,969.84
2019-02-10T13:21:17.046Z,969.76
2019-02-10T13:22:28.104Z,969.79
2019-02-10T13:23:39.419Z,969.78
2019-02-10T13:24:50.647Z,969.78
2019-02-10T13:26:01.703Z,969.76
2019-02-10T13:27:12.780Z,969.81
2019-02-10T13:28:23.835Z,969.83
2019-02-10T13:29:34.915Z,969.89
2019-02-10T13:30:45.985Z,969.93
2019-02-10T13:31:57.048Z,969.96
2019-02-10T13:33:08.107Z,969.94
2019-02-10T13:34:19.177Z,970.02
2019-02-10T13:35:30.231Z,970.03
2019-02-10T13:36:41.301Z,970.03
2019-02-10T13:37:52.357Z,970.06
2019-02-10T13:39:04.426Z,970.10
2019-02-10T13:40:16.977Z,970.00
2019-02-10T13:41:26.596Z,969.99
2019-02-10T13:42:38.024Z,969.95
2019-02-10T13:43:49.084Z,969.98
2019-02-10T13:45:00.646Z,969.91
2019-02-10T13:46:11.698Z,969.94
2019-02-10T13:47:22.751Z,970.09
2019-02-10T13:48:33.805Z,970.13
2019-02-10T13:49:44.864Z,970.19
2019-02-10T13:50:55.921Z,970.18
2019-02-10T13:52:07.986Z,970.12
2019-02-10T13:53:19.496Z,970.14
2019-02-10T13:54:31.552Z,970.12
2019-02-10T13:55:42.616Z,970.14
2019-02-10T13:56:53.696Z,970.11
2019-02-10T13:58:04.751Z,970.15
2019-02-10T13:59:15.808Z,970.08
2019-02-10T14:00:26.865Z,970.05
2019-02-10T14:01:38.298Z,970.10
2019-02-10T14:02:49.362Z,969.98
2019-02-10T14:04:00.416Z,969.96
2019-02-10T14:05:11.812Z,970.10
2019-02-10T14:06:22.876Z,970.22
2019-02-10T14:07:34.257Z,970.20
2019-02-10T14:08:45.311Z,970.25
2019-02-10T14:09:56.379Z,970.11
2019-02-10T14:11:07.440Z,970.13
2019-02-10T14:12:18.495Z,970.06
2019-02-10T14:13:29.616Z,970.13
2019-02-10T14:14:40.694Z,970.08
2019-02-10T14:15:51.770Z,969.95
2019-02-10T14:17:02.834Z,969.96
2019-02-10T14:18:13.903Z,969.86
2019-02-10T14:19:24.968Z,969.83
2019-02-10T14:20:36.031Z,969.82
2019-02-10T14:21:47.100Z,969.84
2019-02-10T14:22:58.179Z,969.86
2019-02-10T14:24:09.246Z,969.92
2019-02-10T14:25:20.326Z,969.86
2019-02-10T14:26:31.572Z,969.95
2019-02-10T14:27:42.635Z,969.96
2019-02-10T14:28:53.714Z,969.97
2019-02-10T14:30:04.771Z,970.03
2019-02-10T14:31:15.831Z,970.03
2019-02-10T14:32:26.898Z,970.02
2019-02-10T14:33:39.075Z,969.99
2019-02-10T14:34:49.045Z,969.97
2019-02-10T14:36:00.104Z,970.02
2019-02-10T14:37:11.162Z,970.09
2019-02-10T14:38:22.230Z,970.05
2019-02-10T14:39:33.315Z,970.10
2019-02-10T14:40:44.374Z,970.07
2019-02-10T14:41:55.436Z,970.01
2019-02-10T14:43:06.506Z,970.07
2019-02-10T14:44:17.618Z,970.09
2019-02-10T14:45:28.688Z,970.13
2019-02-10T14:46:39.740Z,970.07
2019-02-10T14:47:50.808Z,970.10
2019-02-10T14:49:01.894Z,970.13
2019-02-10T14:50:12.930Z,970.11
2019-02-10T14:51:25.076Z,970.15
2019-02-10T14:52:36.151Z,970.19
2019-02-10T14:53:47.208Z,970.21
2019-02-10T14:54:58.274Z,970.24
2019-02-10T14:56:09.325Z,970.23
2019-02-10T14:57:20.392Z,970.23
2019-02-10T14:58:31.446Z,970.26
2019-02-10T14:59:42.511Z,970.28
2019-02-10T15:00:53.571Z,970.31
2019-02-10T15:02:04.650Z,970.31
2019-02-10T15:03:15.705Z,970.39
2019-02-10T15:04:26.783Z,970.41
2019-02-10T15:05:37.850Z,970.38
2019-02-10T15:06:48.910Z,970.32
2019-02-10T15:07:59.968Z,970.34
2019-02-10T15:09:11.028Z,970.31
2019-02-10T15:10:22.091Z,970.25
2019-02-10T15:11:33.157Z,970.22
2019-02-10T15:12:44.217Z,970.20
2019-02-10T15:13:56.270Z,970.23
2019-02-10T15:15:07.527Z,970.21
2019-02-10T15:16:18.592Z,970.21
2019-02-10T15:17:29.877Z,970.24
2019-02-10T15:18:40.715Z,970.23
2019-02-10T15:19:52.209Z,970.26
2019-02-10T15:21:03.283Z,970.27
2019-02-10T15:22:14.338Z,970.27
2019-02-10T15:23:25.398Z,970.29
2019-02-10T15:24:36.628Z,970.25
2019-02-10T15:25:47.695Z,970.21
2019-02-10T15:26:59.612Z,970.29
2019-02-10T15:28:10.809Z,970.20
2019-02-10T15:29:21.876Z,970.25
2019-02-10T15:30:32.949Z,970.24
2019-02-10T15:31:44.006Z,970.20
2019-02-10T15:32:55.077Z,970.19
2019-02-10T15:34:06.140Z,970.10
2019-02-10T15:35:17.206Z,970.18
2019-02-10T15:36:28.261Z,970.21
2019-02-10T15:37:39.314Z,970.19
2019-02-10T15:38:50.363Z,970.18
2019-02-10T15:40:01.417Z,970.23
2019-02-10T15:41:12.474Z,970.30
2019-02-10T15:42:23.526Z,970.28
2019-02-10T15:43:35.592Z,970.31
2019-02-10T15:44:46.750Z,970.36
2019-02-10T15:45:57.817Z,970.41
2019-02-10T15:47:08.878Z,970.44
2019-02-10T15:48:19.945Z,970.45
2019-02-10T15:49:31.014Z,970.56
2019-02-10T15:50:42.082Z,970.62
2019-02-10T15:51:53.141Z,970.63
2019-02-10T15:53:04.191Z,970.70
2019-02-10T15:54:15.252Z,970.72
2019-02-10T15:55:26.295Z,970.80
2019-02-10T15:56:38.348Z,970.84
2019-02-10T15:57:49.401Z,970.86
2019-02-10T15:59:00.621Z,970.95
2019-02-10T16:00:11.677Z,971.01
2019-02-10T16:01:22.723Z,971.05
2019-02-10T16:02:33.786Z,971.17
2019-02-10T16:03:44.848Z,971.06
2019-02-10T16:04:55.906Z,970.97
2019-02-10T16:06:06.966Z,970.93
2019-02-10T16:07:18.016Z,970.93
2019-02-10T16:08:29.069Z,970.97
2019-02-10T16:09:40.125Z,971.05
2019-02-10T16:10:57.949Z,971.08
2019-02-10T16:12:02.587Z,971.12
2019-02-10T16:13:13.634Z,971.17
2019-02-10T16:14:24.702Z,971.23
2019-02-10T16:15:35.755Z,971.27
2019-02-10T16:16:46.815Z,971.26
2019-02-10T16:17:57.868Z,971.32
2019-02-10T16:19:08.918Z,971.26
2019-02-10T16:20:19.966Z,971.43
2019-02-10T16:21:31.008Z,971.43
2019-02-10T16:22:42.366Z,971.44
2019-02-10T16:23:53.414Z,971.53
2019-02-10T16:25:04.624Z,971.57
2019-02-10T16:26:15.694Z,971.62
2019-02-10T16:27:26.749Z,971.68
2019-02-10T16:28:37.801Z,971.78
2019-02-10T16:29:48.842Z,971.74
2019-02-10T16:30:59.896Z,971.88
2019-02-10T16:32:10.943Z,971.91
2019-02-10T16:33:21.999Z,971.95
2019-02-10T16:34:33.045Z,972.07
2019-02-10T16:35:44.091Z,972.12
2019-02-10T16:36:55.128Z,972.21
2019-02-10T16:38:06.173Z,972.27
2019-02-10T16:39:17.220Z,972.30
2019-02-10T16:40:28.269Z,972.33
2019-02-10T16:41:39.315Z,972.30
2019-02-10T16:42:50.434Z,972.31
2019-02-10T16:44:01.477Z,972.30
2019-02-10T16:45:12.557Z,972.26
2019-02-10T16:46:23.606Z,972.24
2019-02-10T16:47:34.662Z,972.21
2019-02-10T16:48:46.736Z,972.22
2019-02-10T16:49:57.752Z,972.29
2019-02-10T16:51:08.793Z,972.22
2019-02-10T16:52:19.848Z,972.30
2019-02-10T16:53:31.895Z,972.27
2019-02-10T16:54:42.949Z,972.32
2019-02-10T16:55:54.074Z,972.26
2019-02-10T16:57:05.126Z,972.24
2019-02-10T16:58:16.195Z,972.28
2019-02-10T16:59:27.231Z,972.23
2019-02-10T17:00:38.279Z,972.28
2019-02-10T17:01:49.334Z,972.26
2019-02-10T17:03:00.378Z,972.25
2019-02-10T17:04:11.424Z,972.32
2019-02-10T17:05:22.467Z,972.25
2019-02-10T17:06:33.510Z,972.29
2019-02-10T17:07:44.552Z,972.30
2019-02-10T17:08:55.891Z,972.36
2019-02-10T17:10:06.935Z,972.36
2019-02-10T17:11:17.990Z,972.41
2019-02-10T17:12:29.042Z,972.37
2019-02-10T17:13:40.131Z,972.38
2019-02-10T17:14:51.210Z,972.36
2019-02-10T17:16:05.109Z,972.45
2019-02-10T17:17:13.304Z,972.25
2019-02-10T17:18:24.346Z,972.34
2019-02-10T17:19:35.388Z,972.42
2019-02-10T17:20:46.446Z,972.55
2019-02-10T17:21:57.650Z,972.61
2019-02-10T17:23:08.702Z,972.70
2019-02-10T17:24:19.748Z,972.75
2019-02-10T17:25:30.805Z,972.72
2019-02-10T17:26:42.019Z,972.73
2019-02-10T17:27:53.068Z,972.77
2019-02-10T17:29:04.119Z,972.80
2019-02-10T17:30:15.162Z,972.77
2019-02-10T17:31:26.224Z,972.69
2019-02-10T17:32:37.277Z,972.62
2019-02-10T17:33:48.315Z,972.64
2019-02-10T17:34:59.364Z,972.69
2019-02-10T17:36:10.421Z,972.63
2019-02-10T17:37:21.622Z,972.67
2019-02-10T17:38:32.671Z,972.66
2019-02-10T17:39:43.734Z,972.80
2019-02-10T17:40:55.784Z,972.80
2019-02-10T17:42:06.856Z,972.82
2019-02-10T17:43:17.910Z,972.88
2019-02-10T17:44:28.953Z,972.91
2019-02-10T17:45:40.002Z,972.93
2019-02-10T17:46:51.053Z,972.91
2019-02-10T17:48:02.100Z,972.88
2019-02-10T17:49:13.151Z,972.83
2019-02-10T17:50:24.205Z,972.88
2019-02-10T17:51:35.273Z,972.90
2019-02-10T17:52:46.337Z,972.89
2019-02-10T17:53:57.390Z,972.97
2019-02-10T17:55:08.435Z,973.03
2019-02-10T17:56:19.646Z,973.01
2019-02-10T17:57:30.698Z,973.09
2019-02-10T17:58:41.749Z,973.06
2019-02-10T17:59:52.795Z,973.07
2019-02-10T18:01:03.845Z,973.06
2019-02-10T18:02:14.890Z,973.08
2019-02-10T18:03:25.938Z,973.05
2019-02-10T18:04:37.704Z,973.15
2019-02-10T18:05:48.207Z,973.19
2019-02-10T18:06:59.254Z,973.23
2019-02-10T18:08:10.306Z,973.37
2019-02-10T18:09:21.358Z,973.32
2019-02-10T18:10:32.488Z,973.40
2019-02-10T18:11:44.530Z,973.44
2019-02-10T18:12:55.577Z,973.50
2019-02-10T18:14:06.635Z,973.64
2019-02-10T18:15:17.696Z,973.54
2019-02-10T18:16:28.758Z,973.66
2019-02-10T18:17:39.809Z,973.66
2019-02-10T18:18:51.864Z,973.75
2019-02-10T18:20:02.897Z,973.78
2019-02-10T18:21:13.945Z,973.75
2019-02-10T18:22:24.993Z,973.84
2019-02-10T18:23:37.041Z,973.99
2019-02-10T18:24:48.091Z,973.93
2019-02-10T18:25:59.138Z,973.95
2019-02-10T18:27:10.200Z,974.03
2019-02-10T18:28:21.244Z,974.05
2019-02-10T18:29:36.458Z,974.10
2019-02-10T18:30:43.338Z,974.08
2019-02-10T18:31:54.374Z,974.14
2019-02-10T18:33:05.434Z,974.17
2019-02-10T18:34:16.496Z,974.17
2019-02-10T18:35:27.553Z,974.20
2019-02-10T18:36:38.606Z,974.22
2019-02-10T18:37:49.653Z,974.23
2019-02-10T18:39:00.700Z,974.22
2019-02-10T18:40:11.738Z,974.20
2019-02-10T18:41:22.785Z,974.25
2019-02-10T18:42:33.822Z,974.29
2019-02-10T18:43:44.907Z,974.44
2019-02-10T18:44:56.953Z,974.33
2019-02-10T18:46:07.991Z,974.38
2019-02-10T18:47:19.039Z,974.41
2019-02-10T18:48:30.387Z,974.49
2019-02-10T18:49:41.429Z,974.52
2019-02-10T18:50:52.483Z,974.49
2019-02-10T18:52:03.529Z,974.56
2019-02-10T18:53:14.582Z,974.63
2019-02-10T18:54:25.936Z,974.52
2019-02-10T18:55:36.979Z,974.52
2019-02-10T18:56:48.058Z,974.51
2019-02-10T18:57:59.104Z,974.54
2019-02-10T18:59:10.521Z,974.58
2019-02-10T19:00:21.561Z,974.55
2019-02-10T19:01:32.597Z,974.59
2019-02-10T19:02:43.768Z,974.60
2019-02-10T19:03:54.821Z,974.57
2019-02-10T19:05:05.860Z,974.61
2019-02-10T19:06:16.907Z,974.64
2019-02-10T19:07:28.959Z,974.69
2019-02-10T19:08:39.992Z,974.71
2019-02-10T19:09:51.057Z,974.68
2019-02-10T19:11:02.115Z,974.70
2019-02-10T19:12:13.630Z,974.71
2019-02-10T19:13:24.665Z,974.85
2019-02-10T19:14:35.730Z,974.86
2019-02-10T19:15:47.787Z,974.83
2019-02-10T19:16:58.834Z,974.83
2019-02-10T19:18:09.881Z,974.98
2019-02-10T19:19:20.924Z,974.94
2019-02-10T19:20:31.958Z,974.99
2019-02-10T19:21:44.004Z,974.94
2019-02-10T19:22:55.050Z,974.97
2019-02-10T19:24:06.094Z,974.92
2019-02-10T19:25:17.440Z,974.94
2019-02-10T19:26:28.487Z,975.01
2019-02-10T19:27:39.532Z,975.03
2019-02-10T19:28:50.563Z,974.97
2019-02-10T19:30:01.607Z,974.96
2019-02-10T19:31:12.645Z,975.02
2019-02-10T19:32:23.723Z,975.08
2019-02-10T19:33:35.704Z,975.07
2019-02-10T19:34:46.960Z,975.09
2019-02-10T19:35:58.008Z,975.13
2019-02-10T19:38:20.120Z,975.21
2019-02-10T19:39:31.257Z,975.24
2019-02-10T19:40:42.295Z,975.31
2019-02-10T19:41:55.616Z,975.35
2019-02-10T19:43:04.408Z,975.41
2019-02-10T19:44:15.453Z,975.43
2019-02-10T19:45:26.504Z,975.50
2019-02-10T19:46:37.551Z,975.57
2019-02-10T19:47:49.539Z,975.59
2019-02-10T19:49:00.578Z,975.63
2019-02-10T19:50:11.629Z,975.68
2019-02-10T19:51:22.662Z,975.70
2019-02-10T19:52:33.712Z,975.75
2019-02-10T19:53:44.819Z,975.76
2019-02-10T19:54:55.858Z,975.73
2019-02-10T19:56:06.906Z,975.73
2019-02-10T19:57:18.002Z,975.79
2019-02-10T19:58:29.039Z,975.78
2019-02-10T19:59:41.190Z,975.89
2019-02-10T20:00:52.319Z,975.87
2019-02-10T20:02:03.421Z,975.89
2019-02-10T20:03:14.462Z,975.92
2019-02-10T20:04:25.510Z,976.00
2019-02-10T20:05:36.551Z,976.05
2019-02-10T20:06:47.787Z,976.03
2019-02-10T20:07:58.827Z,976.13
2019-02-10T20:09:09.937Z,976.11
2019-02-10T20:10:20.976Z,976.05
2019-02-10T20:11:32.032Z,976.09
2019-02-10T20:12:43.400Z,976.18
2019-02-10T20:13:54.454Z,976.19
2019-02-10T20:15:05.680Z,976.17
2019-02-10T20:16:16.709Z,976.21
2019-02-10T20:17:28.048Z,976.22
2019-02-10T20:18:39.090Z,976.27
2019-02-10T20:19:50.142Z,976.26
2019-02-10T20:21:01.173Z,976.28
2019-02-10T20:22:12.232Z,976.31
2019-02-10T20:23:23.260Z,976.33
2019-02-10T20:24:34.294Z,976.32
2019-02-10T20:25:45.331Z,976.30
2019-02-10T20:26:56.371Z,976.35
2019-02-10T20:28:07.411Z,976.30
2019-02-10T20:29:18.449Z,976.31
2019-02-10T20:30:29.507Z,976.29
2019-02-10T20:31:40.862Z,976.24
2019-02-10T20:32:51.891Z,976.32
2019-02-10T20:34:02.928Z,976.28
2019-02-10T20:35:13.967Z,976.36
2019-02-10T20:36:26.007Z,976.40
2019-02-10T20:37:42.454Z,976.43
2019-02-10T20:38:48.087Z,976.45
2019-02-10T20:39:59.576Z,976.56
2019-02-10T20:41:10.916Z,976.54
2019-02-10T20:42:21.950Z,976.56
2019-02-10T20:43:32.978Z,976.61
2019-02-10T20:44:44.009Z,976.70
2019-02-10T20:45:55.045Z,976.79
2019-02-10T20:47:06.073Z,976.84
2019-02-10T20:48:17.108Z,976.92
2019-02-10T20:49:28.144Z,977.00
2019-02-10T20:50:39.177Z,976.97
2019-02-10T20:51:50.216Z,977.03
2019-02-10T20:53:01.235Z,977.04
2019-02-10T20:54:12.270Z,977.05
2019-02-10T20:55:23.306Z,977.12
2019-02-10T20:56:34.380Z,977.14
2019-02-10T20:57:45.389Z,977.09
2019-02-10T20:58:56.430Z,977.11
2019-02-10T21:00:07.478Z,977.17
2019-02-10T21:01:18.511Z,977.16
2019-02-10T21:02:29.661Z,977.14
2019-02-10T21:03:41.158Z,977.12
2019-02-10T21:04:52.219Z,977.12
2019-02-10T21:06:03.237Z,977.23
2019-02-10T21:07:14.277Z,977.21
2019-02-10T21:08:25.305Z,977.36
2019-02-10T21:09:36.341Z,977.38
2019-02-10T21:10:47.376Z,977.36
2019-02-10T21:11:58.448Z,977.44
2019-02-10T21:13:09.637Z,977.41
2019-02-10T21:14:20.675Z,977.40
2019-02-10T21:15:31.709Z,977.42
2019-02-10T21:16:42.803Z,977.38
2019-02-10T21:17:53.841Z,977.54
2019-02-10T21:19:04.868Z,977.56
2019-02-10T21:20:15.898Z,977.56
2019-02-10T21:21:26.936Z,977.64
2019-02-10T21:22:38.019Z,977.67
2019-02-10T21:23:49.029Z,977.60
2019-02-10T21:25:00.132Z,977.74
2019-02-10T21:26:11.115Z,977.74
2019-02-10T21:27:22.153Z,977.70
2019-02-10T21:28:33.187Z,977.68
2019-02-10T21:29:44.231Z,977.55
2019-02-10T21:30:56.294Z,977.58
2019-02-10T21:32:09.279Z,977.66
2019-02-10T21:33:20.330Z,977.72
2019-02-10T21:34:31.357Z,977.72
2019-02-10T21:35:42.393Z,977.80
2019-02-10T21:36:53.425Z,977.91
2019-02-10T21:38:04.457Z,977.94
2019-02-10T21:39:15.536Z,977.94
2019-02-10T21:40:26.571Z,977.97
2019-02-10T21:41:37.606Z,977.99
2019-02-10T21:42:48.654Z,978.02
2019-02-10T21:44:00.681Z,977.97
2019-02-10T21:45:11.727Z,977.95
2019-02-10T21:46:22.778Z,977.93
2019-02-10T21:47:33.849Z,978.05
2019-02-10T21:48:44.843Z,978.05
2019-02-10T21:49:55.875Z,978.04
2019-02-10T21:51:06.961Z,978.04
2019-02-10T21:52:17.987Z,978.11
2019-02-10T21:53:29.016Z,978.23
2019-02-10T21:54:40.047Z,978.21
2019-02-10T21:55:51.083Z,978.20
2019-02-10T21:57:02.116Z,978.23
2019-02-10T21:58:13.146Z,978.33
2019-02-10T21:59:24.178Z,978.33
2019-02-10T22:00:35.208Z,978.33
2019-02-10T22:01:46.233Z,978.40
2019-02-10T22:02:57.283Z,978.39
2019-02-10T22:04:08.304Z,978.41
2019-02-10T22:05:19.332Z,978.45
2019-02-10T22:06:30.376Z,978.50
2019-02-10T22:07:41.410Z,978.55
2019-02-10T22:08:52.441Z,978.58
2019-02-10T22:10:03.487Z,978.61
2019-02-10T22:11:14.525Z,978.58
2019-02-10T22:12:25.559Z,978.63
2019-02-10T22:13:36.589Z,978.68
2019-02-10T22:14:47.629Z,978.64
2019-02-10T22:15:58.664Z,978.63
2019-02-10T22:17:09.685Z,978.64
2019-02-10T22:18:20.719Z,978.75
2019-02-10T22:19:31.754Z,978.77
2019-02-10T22:20:42.782Z,978.70
2019-02-10T22:21:53.830Z,978.87
2019-02-10T22:23:04.859Z,978.80
2019-02-10T22:24:15.883Z,978.87
2019-02-10T22:25:27.220Z,979.01
2019-02-10T22:26:38.253Z,978.89
2019-02-10T22:27:49.275Z,979.03
2019-02-10T22:29:01.306Z,979.01
2019-02-10T22:30:12.340Z,979.05
2019-02-10T22:31:23.369Z,978.99
2019-02-10T22:32:34.441Z,979.11
2019-02-10T22:33:51.303Z,978.93
2019-02-10T22:34:56.502Z,979.13
2019-02-10T22:36:07.524Z,979.09
2019-02-10T22:37:18.751Z,979.13
2019-02-10T22:38:29.784Z,979.14
2019-02-10T22:39:40.805Z,979.07
2019-02-10T22:40:51.835Z,979.11
2019-02-10T22:42:02.856Z,979.23
2019-02-10T22:43:13.896Z,979.21
2019-02-10T22:44:24.923Z,979.25
2019-02-10T22:45:36.955Z,979.29
2019-02-10T22:46:47.982Z,979.35
2019-02-10T22:47:59.016Z,979.44
2019-02-10T22:49:10.054Z,979.46
2019-02-10T22:50:21.090Z,979.50
2019-02-10T22:51:32.123Z,979.53
2019-02-10T22:52:43.159Z,979.58
2019-02-10T22:53:54.181Z,979.69
2019-02-10T22:55:05.222Z,979.64
2019-02-10T22:56:16.256Z,979.70
2019-02-10T22:57:27.291Z,979.73
2019-02-10T22:58:38.340Z,979.69
2019-02-10T22:59:49.375Z,979.82
2019-02-10T23:01:00.422Z,979.85
2019-02-10T23:02:11.443Z,979.80
2019-02-10T23:03:22.481Z,979.78
2019-02-10T23:04:33.502Z,979.77
2019-02-10T23:05:44.529Z,979.83
2019-02-10T23:06:55.559Z,979.85
2019-02-10T23:08:06.582Z,979.84
2019-02-10T23:09:17.633Z,979.90
2019-02-10T23:10:28.666Z,979.96
2019-02-10T23:11:39.697Z,979.83
2019-02-10T23:12:53.787Z,979.95
2019-02-10T23:14:01.744Z,979.91
2019-02-10T23:15:12.862Z,979.92
2019-02-10T23:16:24.882Z,979.89
2019-02-10T23:17:35.914Z,979.89
2019-02-10T23:18:46.950Z,979.98
2019-02-10T23:19:59.007Z,980.10
2019-02-10T23:21:10.040Z,980.03
2019-02-10T23:22:21.073Z,980.11
2019-02-10T23:23:32.107Z,980.15
2019-02-10T23:24:43.124Z,980.12
2019-02-10T23:25:54.146Z,980.07
2019-02-10T23:27:05.170Z,980.06
2019-02-10T23:28:16.189Z,980.11
2019-02-10T23:29:27.215Z,980.16
2019-02-10T23:30:38.647Z,980.07
2019-02-10T23:31:49.671Z,980.10
2019-02-10T23:33:00.694Z,980.13
2019-02-10T23:34:11.724Z,980.19
2019-02-10T23:35:22.761Z,980.28
2019-02-10T23:36:33.774Z,980.27
2019-02-10T23:37:44.800Z,980.43
2019-02-10T23:38:55.824Z,980.30
2019-02-10T23:40:06.853Z,980.29
2019-02-10T23:41:17.876Z,980.33
2019-02-10T23:42:28.903Z,980.34
2019-02-10T23:43:39.924Z,980.39
2019-02-10T23:44:50.949Z,980.51
2019-02-10T23:46:01.976Z,980.42
2019-02-10T23:47:13.040Z,980.43
2019-02-10T23:48:24.029Z,980.48
2019-02-10T23:49:35.063Z,980.52
2019-02-10T23:50:46.087Z,980.58
2019-02-10T23:51:57.107Z,980.68
2019-02-10T23:53:08.133Z,980.67
2019-02-10T23:54:19.158Z,980.74
2019-02-10T23:55:30.194Z,980.76
2019-02-10T23:56:47.052Z,980.71
2019-02-10T23:57:52.238Z,980.76
2019-02-10T23:59:03.259Z,980.80
